Time;durP1;ratioP1;P1;durP2;ratioP2;P2;SDS_P1;SDS_P2;PMS_P1;PMS_P2;Temp;Humidity;BMP_temperature;BMP_pressure;BME280_temperature;BME280_humidity;BME280_pressure;Samples;Min_cycle;Max_cycle;Signal;HPM_P1;HPM_P2
2023/07/10 00:04:16;;;;;;;2.90;2.70;;;;;;;;;;10327339;28;20213;-77
2023/07/10 00:09:17;;;;;;;3.25;3.05;;;;;;;;;;10327097;28;20228;-79
2023/07/10 00:14:19;;;;;;;3.40;3.20;;;;;;;;;;10325190;28;20217;-80
2023/07/10 00:19:20;;;;;;;6.78;3.25;;;;;;;;;;10323994;28;20232;-82
2023/07/10 00:24:21;;;;;;;2.72;2.63;;;;;;;;;;10339383;28;20227;-76
2023/07/10 00:29:25;;;;;;;4.13;3.28;;;;;;;;;;10325640;28;20273;-75
2023/07/10 00:34:26;;;;;;;2.17;2.17;;;;;;;;;;10319776;28;20223;-78
2023/07/10 00:39:28;;;;;;;2.92;2.35;;;;;;;;;;10336950;28;20224;-75
2023/07/10 00:44:35;;;;;;;2.15;2.15;;;;;;;;;;10315769;28;20220;-74
2023/07/10 00:49:39;;;;;;;2.10;2.10;;;;;;;;;;10318724;28;20223;-76
2023/07/10 00:54:43;;;;;;;2.28;2.15;;;;;;;;;;10333375;28;20209;-77
2023/07/10 00:59:44;;;;;;;3.10;2.90;;;;;;;;;;10330141;28;20244;-75
2023/07/10 01:05:12;;;;;;;3.13;2.92;;;;;;;;;;10331963;28;20215;-75
2023/07/10 01:10:14;;;;;;;3.20;3.10;;;;;;;;;;10321716;28;20332;-75
2023/07/10 01:15:16;;;;;;;2.47;2.38;;;;;;;;;;10332873;28;20188;-76
2023/07/10 01:20:26;;;;;;;2.70;2.60;;;;;;;;;;10321326;28;20216;-75
2023/07/10 01:25:29;;;;;;;2.78;2.67;;;;;;;;;;10316368;28;20252;-75
2023/07/10 01:30:33;;;;;;;3.60;2.70;;;;;;;;;;10326625;28;21034;-78
2023/07/10 01:35:34;;;;;;;2.53;2.30;;;;;;;;;;10332811;28;20216;-77
2023/07/10 01:40:37;;;;;;;2.45;2.35;;;;;;;;;;10321353;28;20256;-75
2023/07/10 01:45:45;;;;;;;2.70;2.60;;;;;;;;;;10325969;28;20282;-75
2023/07/10 01:50:46;;;;;;;2.90;2.80;;;;;;;;;;10322009;28;21034;-75
2023/07/10 01:55:47;;;;;;;2.90;2.80;;;;;;;;;;10317745;28;20277;-76
2023/07/10 02:00:49;;;;;;;3.35;3.15;;;;;;;;;;10335207;28;20224;-76
2023/07/10 02:05:50;;;;;;;3.53;3.22;;;;;;;;;;10322000;28;20732;-74
2023/07/10 02:10:51;;;;;;;2.85;2.75;;;;;;;;;;10320837;28;20220;-78
2023/07/10 02:15:52;;;;;;;2.63;2.58;;;;;;;;;;10321719;28;20298;-79
2023/07/10 02:20:53;;;;;;;3.03;2.85;;;;;;;;;;10335176;28;20302;-76
2023/07/10 02:25:54;;;;;;;4.97;2.90;;;;;;;;;;10309395;28;20328;-76
2023/07/10 02:30:55;;;;;;;3.20;3.00;;;;;;;;;;10330815;28;20765;-76
2023/07/10 02:35:57;;;;;;;2.63;2.53;;;;;;;;;;10318063;28;20220;-76
2023/07/10 02:40:59;;;;;;;3.22;3.03;;;;;;;;;;10304713;28;20900;-78
2023/07/10 02:46:01;;;;;;;3.15;2.95;;;;;;;;;;10325339;28;20216;-76
2023/07/10 02:51:03;;;;;;;2.65;2.55;;;;;;;;;;10327155;28;20330;-75
2023/07/10 02:56:04;;;;;;;3.25;3.05;;;;;;;;;;10320922;28;20772;-75
2023/07/10 03:01:05;;;;;;;2.72;2.53;;;;;;;;;;10312667;28;20306;-76
2023/07/10 03:06:06;;;;;;;3.00;2.80;;;;;;;;;;10334942;28;21085;-75
2023/07/10 03:11:09;;;;;;;2.92;2.70;;;;;;;;;;10329892;28;20230;-75
2023/07/10 03:16:12;;;;;;;3.05;2.95;;;;;;;;;;10326998;28;20208;-77
2023/07/10 03:21:12;;;;;;;3.85;3.63;;;;;;;;;;10335487;28;20224;-76
2023/07/10 03:26:14;;;;;;;3.97;3.78;;;;;;;;;;10316307;28;20846;-75
2023/07/10 03:31:15;;;;;;;3.75;3.60;;;;;;;;;;10325590;28;20219;-75
2023/07/10 03:36:17;;;;;;;6.70;3.70;;;;;;;;;;10329480;28;20223;-76
2023/07/10 03:41:18;;;;;;;4.15;3.17;;;;;;;;;;10329116;28;20227;-76
2023/07/10 03:46:19;;;;;;;3.28;2.92;;;;;;;;;;10312639;28;20219;-75
2023/07/10 03:51:20;;;;;;;5.13;3.63;;;;;;;;;;10328619;28;20224;-77
2023/07/10 03:56:21;;;;;;;3.30;3.20;;;;;;;;;;10331443;28;20597;-80
2023/07/10 04:01:22;;;;;;;5.75;3.45;;;;;;;;;;10324276;28;20297;-77
2023/07/10 04:06:23;;;;;;;4.30;3.30;;;;;;;;;;10318296;28;21072;-74
2023/07/10 04:11:24;;;;;;;3.65;3.33;;;;;;;;;;10319028;28;20609;-78
2023/07/10 04:16:26;;;;;;;6.28;3.38;;;;;;;;;;10314096;28;20220;-74
2023/07/10 04:21:29;;;;;;;4.03;3.72;;;;;;;;;;10314943;28;20224;-76
2023/07/10 04:26:33;;;;;;;3.38;3.15;;;;;;;;;;10336991;28;20251;-73
2023/07/10 04:31:35;;;;;;;3.55;3.30;;;;;;;;;;10314935;28;20227;-76
2023/07/10 04:36:36;;;;;;;3.95;3.70;;;;;;;;;;10318563;28;20877;-76
2023/07/10 04:41:38;;;;;;;4.80;4.40;;;;;;;;;;10323087;28;20243;-76
2023/07/10 04:46:39;;;;;;;4.25;3.90;;;;;;;;;;10332493;28;20224;-76
2023/07/10 04:51:39;;;;;;;4.50;3.72;;;;;;;;;;10321123;28;20227;-78
2023/07/10 04:56:40;;;;;;;3.92;3.58;;;;;;;;;;10336352;28;20756;-77
2023/07/10 05:01:41;;;;;;;3.80;3.47;;;;;;;;;;10335748;28;20592;-78
2023/07/10 05:06:42;;;;;;;4.47;4.07;;;;;;;;;;10322501;28;20235;-76
2023/07/10 05:11:43;;;;;;;4.47;4.28;;;;;;;;;;10333280;28;20270;-78
2023/07/10 05:16:44;;;;;;;6.10;4.20;;;;;;;;;;10315158;28;20220;-77
2023/07/10 05:21:45;;;;;;;3.67;3.42;;;;;;;;;;10323371;28;20219;-77
2023/07/10 05:26:47;;;;;;;3.92;3.60;;;;;;;;;;10309738;28;20311;-79
2023/07/10 05:31:48;;;;;;;4.38;3.83;;;;;;;;;;10310156;28;20235;-79
2023/07/10 05:36:49;;;;;;;4.45;4.05;;;;;;;;;;10330060;28;20214;-77
2023/07/10 05:41:50;;;;;;;4.22;3.92;;;;;;;;;;10328507;28;21795;-77
2023/07/10 05:46:51;;;;;;;4.20;3.85;;;;;;;;;;10329866;28;20794;-77
2023/07/10 05:51:53;;;;;;;3.33;3.22;;;;;;;;;;10327922;28;20227;-76
2023/07/10 05:56:54;;;;;;;4.22;4.03;;;;;;;;;;10336707;28;20219;-77
2023/07/10 06:01:55;;;;;;;3.70;3.40;;;;;;;;;;10306878;28;20630;-77
2023/07/10 06:06:56;;;;;;;5.80;3.45;;;;;;;;;;10333149;28;20240;-79
2023/07/10 06:11:57;;;;;;;3.90;3.70;;;;;;;;;;10323050;28;20220;-75
2023/07/10 06:16:58;;;;;;;4.00;3.70;;;;;;;;;;10333801;28;20266;-76
2023/07/10 06:22:06;;;;;;;4.35;4.05;;;;;;;;;;10331174;28;20318;-76
2023/07/10 06:27:07;;;;;;;3.70;3.50;;;;;;;;;;10313204;28;20342;-74
2023/07/10 06:32:08;;;;;;;4.07;3.55;;;;;;;;;;10312510;28;20302;-77
2023/07/10 06:37:09;;;;;;;3.33;3.22;;;;;;;;;;10316349;28;20403;-77
2023/07/10 06:42:10;;;;;;;3.72;3.47;;;;;;;;;;10323173;28;20697;-76
2023/07/10 06:47:19;;;;;;;4.40;4.00;;;;;;;;;;10329027;28;20796;-76
2023/07/10 06:52:20;;;;;;;4.40;3.60;;;;;;;;;;10333072;28;20278;-75
2023/07/10 06:57:21;;;;;;;5.03;4.50;;;;;;;;;;10325005;28;20267;-76
2023/07/10 07:02:22;;;;;;;4.25;4.05;;;;;;;;;;10319110;28;20275;-76
2023/07/10 07:07:23;;;;;;;4.78;4.40;;;;;;;;;;10310919;28;20734;-77
2023/07/10 07:12:24;;;;;;;3.63;3.40;;;;;;;;;;10309660;28;20228;-78
2023/07/10 07:17:25;;;;;;;4.43;3.83;;;;;;;;;;10294737;28;20295;-75
2023/07/10 07:22:26;;;;;;;4.32;3.85;;;;;;;;;;10323694;28;20219;-76
2023/07/10 07:27:31;;;;;;;5.20;3.75;;;;;;;;;;10327526;28;20290;-79
2023/07/10 07:32:32;;;;;;;2.50;2.38;;;;;;;;;;10340441;28;20639;-76
2023/07/10 07:37:33;;;;;;;2.03;1.88;;;;;;;;;;10333264;28;20274;-76
2023/07/10 07:42:34;;;;;;;2.53;2.33;;;;;;;;;;10348165;28;20220;-75
2023/07/10 07:47:35;;;;;;;2.00;2.00;;;;;;;;;;10312875;28;20232;-76
2023/07/10 07:52:37;;;;;;;2.28;2.17;;;;;;;;;;10328588;28;20231;-75
2023/07/10 07:57:38;;;;;;;1.90;1.90;;;;;;;;;;10329765;28;21491;-78
2023/07/10 08:02:39;;;;;;;2.30;2.25;;;;;;;;;;10338262;28;20705;-76
2023/07/10 08:07:40;;;;;;;2.60;2.50;;;;;;;;;;10339039;28;20242;-77
2023/07/10 08:12:41;;;;;;;3.33;2.90;;;;;;;;;;10328932;28;20211;-79
2023/07/10 08:17:42;;;;;;;3.33;3.00;;;;;;;;;;10333589;28;20651;-76
2023/07/10 08:22:43;;;;;;;3.25;3.05;;;;;;;;;;10334151;28;20660;-76
2023/07/10 08:27:45;;;;;;;4.03;3.72;;;;;;;;;;10326748;28;20228;-78
2023/07/10 08:32:47;;;;;;;5.05;4.68;;;;;;;;;;10342174;28;20216;-76
2023/07/10 08:37:49;;;;;;;7.75;4.80;;;;;;;;;;10342228;28;20717;-77
2023/07/10 08:42:50;;;;;;;6.40;5.15;;;;;;;;;;10340130;28;20219;-76
2023/07/10 08:47:54;;;;;;;5.72;5.32;;;;;;;;;;10335363;28;20220;-77
2023/07/10 08:53:05;;;;;;;5.90;5.53;;;;;;;;;;10334886;28;20302;-78
2023/07/10 08:58:14;;;;;;;5.90;5.38;;;;;;;;;;10337706;28;20219;-76
2023/07/10 09:03:34;;;;;;;5.35;4.82;;;;;;;;;;10327275;28;20219;-77
2023/07/10 09:08:35;;;;;;;6.40;5.32;;;;;;;;;;10312118;28;20241;-78
2023/07/10 09:13:43;;;;;;;5.10;4.70;;;;;;;;;;10325942;28;21210;-76
2023/07/10 09:18:59;;;;;;;5.45;5.03;;;;;;;;;;10334061;28;20212;-76
2023/07/10 09:24:00;;;;;;;4.50;4.10;;;;;;;;;;10317633;28;20733;-78
2023/07/10 09:29:10;;;;;;;4.03;3.78;;;;;;;;;;10328218;28;20186;-75
2023/07/10 09:34:11;;;;;;;3.70;3.40;;;;;;;;;;10319589;28;20220;-71
2023/07/10 09:39:16;;;;;;;3.95;3.75;;;;;;;;;;10314290;28;20838;-79
2023/07/10 09:44:18;;;;;;;5.60;4.18;;;;;;;;;;10330566;28;21713;-75
2023/07/10 09:49:23;;;;;;;4.43;4.13;;;;;;;;;;10320723;28;20255;-77
2023/07/10 09:54:24;;;;;;;3.47;3.15;;;;;;;;;;10322262;28;20279;-76
2023/07/10 09:59:27;;;;;;;4.03;3.80;;;;;;;;;;10331360;28;20227;-75
2023/07/10 10:04:31;;;;;;;3.20;2.85;;;;;;;;;;10327779;28;20225;-78
2023/07/10 10:09:34;;;;;;;4.22;3.63;;;;;;;;;;10334309;28;20255;-82
2023/07/10 10:14:43;;;;;;;4.47;4.07;;;;;;;;;;10340866;28;20235;-76
2023/07/10 10:19:47;;;;;;;4.05;3.08;;;;;;;;;;10332162;28;20722;-77
2023/07/10 10:24:49;;;;;;;3.85;3.55;;;;;;;;;;10329458;28;20223;-78
2023/07/10 10:30:03;;;;;;;4.25;3.85;;;;;;;;;;10333233;28;20276;-77
2023/07/10 10:35:10;;;;;;;7.20;3.88;;;;;;;;;;10325220;28;20666;-78
2023/07/10 10:40:14;;;;;;;3.30;3.17;;;;;;;;;;10328101;28;20303;-79
2023/07/10 10:45:23;;;;;;;4.32;4.00;;;;;;;;;;10303701;28;20773;-79
2023/07/10 10:50:39;;;;;;;3.65;3.42;;;;;;;;;;10325310;28;20231;-75
2023/07/10 10:55:45;;;;;;;4.30;3.08;;;;;;;;;;10319441;28;20318;-77
2023/07/10 11:00:57;;;;;;;3.80;3.50;;;;;;;;;;10321089;28;20231;-79
2023/07/10 11:06:01;;;;;;;3.50;3.30;;;;;;;;;;10322891;28;20228;-76
2023/07/10 11:11:14;;;;;;;2.78;2.67;;;;;;;;;;10304279;28;20266;-78
2023/07/10 11:16:15;;;;;;;4.97;3.15;;;;;;;;;;10322669;28;20335;-76
2023/07/10 11:21:16;;;;;;;3.40;3.20;;;;;;;;;;10328699;28;20318;-78
2023/07/10 11:26:21;;;;;;;3.08;2.95;;;;;;;;;;10312499;28;20224;-78
2023/07/10 11:31:35;;;;;;;3.00;2.90;;;;;;;;;;10323273;28;20273;-77
2023/07/10 11:36:38;;;;;;;2.53;2.42;;;;;;;;;;10313765;28;20220;-78
2023/07/10 11:41:45;;;;;;;6.15;2.70;;;;;;;;;;10322030;28;20216;-79
2023/07/10 11:47:00;;;;;;;2.60;2.40;;;;;;;;;;10318725;28;20235;-78
2023/07/10 11:52:10;;;;;;;3.33;2.20;;;;;;;;;;10310382;28;20216;-75
2023/07/10 11:57:15;;;;;;;2.05;2.05;;;;;;;;;;10320332;28;20217;-78
2023/07/10 12:02:36;;;;;;;2.33;2.22;;;;;;;;;;10313641;28;20226;-78
2023/07/10 12:07:37;;;;;;;2.70;2.40;;;;;;;;;;10316815;28;20378;-77
2023/07/10 12:12:38;;;;;;;2.30;2.20;;;;;;;;;;10316634;28;20839;-79
2023/07/10 12:17:40;;;;;;;3.83;2.60;;;;;;;;;;10314541;28;20278;-74
2023/07/10 12:22:41;;;;;;;2.22;2.13;;;;;;;;;;10331111;28;20723;-80
2023/07/10 12:27:42;;;;;;;3.10;2.90;;;;;;;;;;10333753;28;20224;-77
2023/07/10 12:32:43;;;;;;;2.90;2.80;;;;;;;;;;10332685;28;20212;-78
2023/07/10 12:37:47;;;;;;;2.50;2.40;;;;;;;;;;10323508;28;20227;-76
2023/07/10 12:42:48;;;;;;;2.25;2.15;;;;;;;;;;10316623;28;20805;-78
2023/07/10 12:47:54;;;;;;;3.20;2.28;;;;;;;;;;10323248;28;20282;-79
2023/07/10 12:52:55;;;;;;;2.25;2.15;;;;;;;;;;10336377;28;20224;-79
2023/07/10 12:57:59;;;;;;;1.95;1.90;;;;;;;;;;10325630;28;20309;-79
2023/07/10 13:03:00;;;;;;;1.85;1.77;;;;;;;;;;10333281;28;20266;-76
2023/07/10 13:08:02;;;;;;;1.95;1.85;;;;;;;;;;10333427;28;21089;-75
2023/07/10 13:13:03;;;;;;;2.17;2.08;;;;;;;;;;10334526;28;20757;-78
2023/07/10 13:18:06;;;;;;;2.67;1.42;;;;;;;;;;10322748;28;20228;-78
2023/07/10 13:23:07;;;;;;;1.40;1.40;;;;;;;;;;10330013;28;20613;-78
2023/07/10 13:28:22;;;;;;;1.65;1.55;;;;;;;;;;10331643;28;20239;-75
2023/07/10 13:33:24;;;;;;;1.90;1.70;;;;;;;;;;10330176;28;20216;-77
2023/07/10 13:38:25;;;;;;;1.90;1.80;;;;;;;;;;10336277;28;20220;-77
2023/07/10 13:43:26;;;;;;;2.00;1.90;;;;;;;;;;10322166;28;20224;-76
2023/07/10 13:48:27;;;;;;;1.77;1.65;;;;;;;;;;10313666;28;20232;-76
2023/07/10 13:53:28;;;;;;;1.30;1.30;;;;;;;;;;10325454;28;21116;-77
2023/07/10 13:58:29;;;;;;;1.77;1.67;;;;;;;;;;10329473;28;20301;-76
2023/07/10 14:03:31;;;;;;;1.48;1.48;;;;;;;;;;10316699;28;20223;-78
2023/07/10 14:08:32;;;;;;;1.80;1.70;;;;;;;;;;10325949;28;20673;-74
2023/07/10 14:13:33;;;;;;;1.58;1.58;;;;;;;;;;10326115;28;20326;-80
2023/07/10 14:18:34;;;;;;;1.88;1.67;;;;;;;;;;10314688;28;20864;-74
2023/07/10 14:23:35;;;;;;;10.55;1.55;;;;;;;;;;10329438;28;20224;-74
2023/07/10 14:28:36;;;;;;;1.52;1.42;;;;;;;;;;10311580;28;20238;-74
2023/07/10 14:33:37;;;;;;;1.08;0.90;;;;;;;;;;10331386;28;20996;-75
2023/07/10 14:38:38;;;;;;;0.95;0.95;;;;;;;;;;10310222;28;20243;-76
2023/07/10 14:43:39;;;;;;;1.75;1.08;;;;;;;;;;10315968;28;20224;-77
2023/07/10 14:48:40;;;;;;;1.02;0.88;;;;;;;;;;10323255;28;20255;-78
2023/07/10 14:53:41;;;;;;;0.95;0.80;;;;;;;;;;10323995;28;21792;-76
2023/07/10 14:58:42;;;;;;;0.70;0.70;;;;;;;;;;10311492;28;20310;-76
2023/07/10 15:03:43;;;;;;;0.93;0.93;;;;;;;;;;10326718;28;20930;-75
2023/07/10 15:08:47;;;;;;;0.90;0.90;;;;;;;;;;10323788;28;20278;-74
2023/07/10 15:13:49;;;;;;;0.85;0.85;;;;;;;;;;10321988;28;20216;-73
2023/07/10 15:18:50;;;;;;;2.50;0.73;;;;;;;;;;10313286;28;20311;-77
2023/07/10 15:23:51;;;;;;;0.68;0.68;;;;;;;;;;10308873;28;20228;-75
2023/07/10 15:28:52;;;;;;;0.80;0.80;;;;;;;;;;10323705;28;20266;-75
2023/07/10 15:33:53;;;;;;;0.60;0.60;;;;;;;;;;10327294;28;20710;-75
2023/07/10 15:38:54;;;;;;;0.85;0.80;;;;;;;;;;10317458;28;20223;-77
2023/07/10 15:43:55;;;;;;;0.55;0.55;;;;;;;;;;10320106;28;20311;-78
2023/07/10 15:48:56;;;;;;;1.30;0.80;;;;;;;;;;10320216;28;20219;-75
2023/07/10 15:53:57;;;;;;;0.60;0.60;;;;;;;;;;10329063;28;20250;-76
2023/07/10 15:58:58;;;;;;;1.00;0.60;;;;;;;;;;10319519;28;20219;-76
2023/07/10 16:03:59;;;;;;;1.23;0.70;;;;;;;;;;10330593;28;20600;-77
2023/07/10 16:09:00;;;;;;;0.60;0.60;;;;;;;;;;10330174;28;20228;-76
2023/07/10 16:14:01;;;;;;;0.52;0.50;;;;;;;;;;10335155;28;20216;-74
2023/07/10 16:19:02;;;;;;;0.50;0.50;;;;;;;;;;10335218;28;20226;-74
2023/07/10 16:24:13;;;;;;;2.83;0.45;;;;;;;;;;10333419;28;20212;-75
2023/07/10 16:29:14;;;;;;;0.75;0.50;;;;;;;;;;10333400;28;20247;-75
2023/07/10 16:34:19;;;;;;;1.65;0.50;;;;;;;;;;10316996;28;20227;-77
2023/07/10 16:39:20;;;;;;;0.50;0.50;;;;;;;;;;10337393;28;20212;-76
2023/07/10 16:44:22;;;;;;;0.57;0.55;;;;;;;;;;10334377;28;21025;-76
2023/07/10 16:49:23;;;;;;;0.60;0.60;;;;;;;;;;10334102;28;20726;-74
2023/07/10 16:54:24;;;;;;;0.95;0.50;;;;;;;;;;10328402;28;20223;-77
2023/07/10 16:59:25;;;;;;;0.50;0.50;;;;;;;;;;10330100;28;20235;-78
2023/07/10 17:04:26;;;;;;;1.05;0.50;;;;;;;;;;10328267;28;20227;-75
2023/07/10 17:09:27;;;;;;;1.60;0.52;;;;;;;;;;10313223;28;20248;-77
2023/07/10 17:14:28;;;;;;;0.60;0.60;;;;;;;;;;10327328;28;20221;-76
2023/07/10 17:19:29;;;;;;;2.08;0.50;;;;;;;;;;10321336;28;21235;-75
2023/07/10 17:24:33;;;;;;;0.40;0.40;;;;;;;;;;10321109;28;20212;-77
2023/07/10 17:29:34;;;;;;;0.40;0.40;;;;;;;;;;10316450;28;20320;-74
2023/07/10 17:34:36;;;;;;;0.43;0.43;;;;;;;;;;10327827;28;20712;-77
2023/07/10 17:39:36;;;;;;;0.50;0.50;;;;;;;;;;10308874;28;20216;-75
2023/07/10 17:44:38;;;;;;;2.33;0.57;;;;;;;;;;10313692;28;20289;-77
2023/07/10 17:49:38;;;;;;;0.40;0.40;;;;;;;;;;10306872;28;21070;-77
2023/07/10 17:54:41;;;;;;;0.93;0.50;;;;;;;;;;10319489;28;20224;-77
2023/07/10 17:59:44;;;;;;;0.65;0.50;;;;;;;;;;10332659;28;20212;-74
2023/07/10 18:04:45;;;;;;;1.13;0.60;;;;;;;;;;10327164;28;20689;-77
2023/07/10 18:09:46;;;;;;;0.52;0.52;;;;;;;;;;10290767;28;20260;-75
2023/07/10 18:14:47;;;;;;;0.43;0.43;;;;;;;;;;10288882;28;20204;-75
2023/07/10 18:19:48;;;;;;;0.80;0.50;;;;;;;;;;10286435;28;20698;-74
2023/07/10 18:24:49;;;;;;;0.60;0.60;;;;;;;;;;10279841;28;20224;-77
2023/07/10 18:29:51;;;;;;;1.00;0.50;;;;;;;;;;10301921;28;20606;-74
2023/07/10 18:34:52;;;;;;;0.50;0.40;;;;;;;;;;10292272;28;20840;-74
2023/07/10 18:39:53;;;;;;;0.50;0.50;;;;;;;;;;10289479;28;20308;-74
2023/07/10 18:44:55;;;;;;;0.40;0.40;;;;;;;;;;10293185;28;20214;-73
2023/07/10 18:49:56;;;;;;;0.60;0.60;;;;;;;;;;10283754;28;20224;-72
2023/07/10 18:54:57;;;;;;;0.50;0.50;;;;;;;;;;10293083;28;20212;-74
2023/07/10 18:59:58;;;;;;;0.60;0.60;;;;;;;;;;10298604;28;20216;-74
2023/07/10 19:04:59;;;;;;;0.88;0.40;;;;;;;;;;10275835;28;20220;-72
2023/07/10 19:10:00;;;;;;;0.32;0.32;;;;;;;;;;10308216;28;20259;-73
2023/07/10 19:15:01;;;;;;;1.60;0.55;;;;;;;;;;10297503;28;20306;-73
2023/07/10 19:20:04;;;;;;;0.40;0.40;;;;;;;;;;10290908;28;20600;-74
2023/07/10 19:25:12;;;;;;;0.43;0.43;;;;;;;;;;10302658;28;20403;-75
2023/07/10 19:30:16;;;;;;;1.45;0.55;;;;;;;;;;10284847;28;20706;-79
2023/07/10 19:35:18;;;;;;;2.10;0.40;;;;;;;;;;10284191;28;20181;-78
2023/07/10 19:40:20;;;;;;;0.40;0.40;;;;;;;;;;10279298;28;20608;-78
2023/07/10 19:45:21;;;;;;;0.40;0.40;;;;;;;;;;10285067;28;20300;-77
2023/07/10 19:50:23;;;;;;;0.70;0.50;;;;;;;;;;10286582;28;20228;-75
2023/07/10 19:55:24;;;;;;;0.57;0.57;;;;;;;;;;10297219;28;20192;-77
2023/07/10 20:00:26;;;;;;;0.70;0.70;;;;;;;;;;10288742;28;20229;-76
2023/07/10 20:05:27;;;;;;;0.70;0.70;;;;;;;;;;10290989;28;20980;-78
2023/07/10 20:10:28;;;;;;;0.63;0.40;;;;;;;;;;10282585;28;20372;-77
2023/07/10 20:15:29;;;;;;;0.55;0.50;;;;;;;;;;10284647;28;20212;-75
2023/07/10 20:20:31;;;;;;;0.50;0.50;;;;;;;;;;10286019;28;20622;-75
2023/07/10 20:25:32;;;;;;;0.40;0.40;;;;;;;;;;10280833;28;20232;-77
2023/07/10 20:30:33;;;;;;;0.45;0.45;;;;;;;;;;10285958;28;20932;-76
2023/07/10 20:35:34;;;;;;;0.57;0.57;;;;;;;;;;10302867;28;20802;-75
2023/07/10 20:40:35;;;;;;;0.77;0.73;;;;;;;;;;10298488;28;20259;-77
2023/07/10 20:45:36;;;;;;;0.40;0.40;;;;;;;;;;10294384;28;20749;-75
2023/07/10 20:50:41;;;;;;;0.45;0.43;;;;;;;;;;10295555;28;20699;-76
2023/07/10 20:55:43;;;;;;;0.50;0.50;;;;;;;;;;10299221;28;20217;-76
2023/07/10 21:00:45;;;;;;;0.50;0.50;;;;;;;;;;10288150;28;20229;-78
2023/07/10 21:05:47;;;;;;;0.43;0.43;;;;;;;;;;10299687;28;20327;-76
2023/07/10 21:10:58;;;;;;;2.67;0.90;;;;;;;;;;10295142;28;20236;-76
2023/07/10 21:15:59;;;;;;;0.50;0.50;;;;;;;;;;10300526;28;20587;-79
2023/07/10 21:21:00;;;;;;;0.50;0.50;;;;;;;;;;10300084;28;20251;-75
2023/07/10 21:26:11;;;;;;;0.40;0.40;;;;;;;;;;10294916;28;20568;-77
2023/07/10 21:31:20;;;;;;;2.25;0.50;;;;;;;;;;10295598;28;20217;-75
2023/07/10 21:36:21;;;;;;;0.45;0.43;;;;;;;;;;10306228;28;20214;-75
2023/07/10 21:41:26;;;;;;;0.65;0.65;;;;;;;;;;10293982;28;20262;-75
2023/07/10 21:46:29;;;;;;;1.35;0.70;;;;;;;;;;10293674;28;20233;-77
2023/07/10 21:51:30;;;;;;;0.40;0.40;;;;;;;;;;10292144;28;20225;-76
2023/07/10 21:56:31;;;;;;;0.52;0.52;;;;;;;;;;10290659;28;20220;-75
2023/07/10 22:01:32;;;;;;;0.60;0.60;;;;;;;;;;10292659;28;20634;-77
2023/07/10 22:06:39;;;;;;;0.52;0.45;;;;;;;;;;10297589;28;20235;-77
2023/07/10 22:11:42;;;;;;;0.50;0.50;;;;;;;;;;10335858;28;20251;-75
2023/07/10 22:16:43;;;;;;;0.65;0.65;;;;;;;;;;10337814;28;20302;-75
2023/07/10 22:21:44;;;;;;;0.50;0.50;;;;;;;;;;10328034;28;20228;-75
2023/07/10 22:26:45;;;;;;;1.30;0.80;;;;;;;;;;10338066;28;20220;-76
2023/07/10 22:31:46;;;;;;;0.50;0.50;;;;;;;;;;10323588;28;20732;-75
2023/07/10 22:36:47;;;;;;;1.20;0.70;;;;;;;;;;10319734;28;20220;-74
2023/07/10 22:41:48;;;;;;;0.40;0.40;;;;;;;;;;10337503;28;20266;-76
2023/07/10 22:46:49;;;;;;;4.57;0.60;;;;;;;;;;10329137;28;20293;-75
2023/07/10 22:51:50;;;;;;;0.52;0.52;;;;;;;;;;10321220;28;20262;-77
2023/07/10 22:56:51;;;;;;;0.80;0.50;;;;;;;;;;10318857;28;20211;-75
2023/07/10 23:01:52;;;;;;;0.40;0.40;;;;;;;;;;10313289;28;20330;-74
2023/07/10 23:07:00;;;;;;;0.40;0.40;;;;;;;;;;10318046;28;21104;-75
2023/07/10 23:12:01;;;;;;;0.60;0.60;;;;;;;;;;10333238;28;20279;-77
2023/07/10 23:17:02;;;;;;;0.82;0.68;;;;;;;;;;10332115;28;20240;-75
2023/07/10 23:22:03;;;;;;;1.20;0.60;;;;;;;;;;10330758;28;20228;-75
2023/07/10 23:27:04;;;;;;;0.50;0.43;;;;;;;;;;10332900;28;20219;-79
2023/07/10 23:32:05;;;;;;;0.63;0.60;;;;;;;;;;10328485;28;20709;-78
2023/07/10 23:37:06;;;;;;;0.52;0.52;;;;;;;;;;10327253;28;20250;-79
2023/07/10 23:42:07;;;;;;;0.70;0.70;;;;;;;;;;10333791;28;20285;-74
2023/07/10 23:47:08;;;;;;;0.60;0.60;;;;;;;;;;10320269;28;20220;-76
2023/07/10 23:52:09;;;;;;;0.77;0.77;;;;;;;;;;10330577;28;20233;-78
2023/07/10 23:57:10;;;;;;;0.50;0.50;;;;;;;;;;10331511;28;20274;-76
